»·PEaware :: KSA717 KASE-KSLC

KSA717 :: KASE-KSLC

FLIGHT INFORMATION

Flight Status: Arrived
Operator: Unknown
More flights by this operator :: More flights under this callsign
Pilot: Ty S. (2873)
Aircraft: MCDONNELL-DOUGLAS MD-88
(MD88)
More flights by this aircraft type
Origin: KASE Aspen-Pitkin Co/Sardy
United States
Destination: KSLC Salt Lake City Intl
United States
More flights between these airports :: More routes between these airports
Route: +LINDZ9 JNC HELPR LEEHY5
File this flight plan on PilotEdge
Remarks: SKY CAMEL
Altitude:
(Current/Filed)
34,000ft
Speed:
(Current/Filed)
443kts
Departed: 03-Jan-20 04:57 PM
Arrived: 03-Jan-20 05:58 PM
Distance/Time
Traveled:
252nm/1:00
Distance/Time
To Go:
Arrived

Flight Plot

Page will automatically refresh every two minutes.

Flight plan parsing failed; only flown route is shown


Map Options




Map Legend


Flown Route
Filed Route
Departure Airport
Arrival Airport
Navaid (VOR, NDB)
Fix

Horizontal Profiles

Position Reports

Time Latitude Longitude Heading Altitude Ground
Speed
03-Jan-20 15:52 39.222687 -106.866638 247 7826ft 0kts
03-Jan-20 15:53 39.222687 -106.866638 247 7826ft 0kts
03-Jan-20 15:54 39.222687 -106.866638 247 7826ft 0kts
03-Jan-20 15:55 39.222687 -106.866638 247 7826ft 0kts
03-Jan-20 15:56 39.222687 -106.866638 247 7826ft 0kts
03-Jan-20 15:57 39.222687 -106.866638 247 7826ft 0kts
03-Jan-20 15:58 39.222687 -106.866638 247 7826ft 0kts
03-Jan-20 15:59 39.222687 -106.866638 247 7826ft 0kts
03-Jan-20 16:00 39.222687 -106.866638 247 7826ft 0kts
03-Jan-20 16:01 39.222687 -106.866638 247 7826ft 0kts
03-Jan-20 16:02 39.222687 -106.866638 247 7826ft 0kts
03-Jan-20 16:03 39.222687 -106.866638 247 7826ft 0kts
03-Jan-20 16:04 39.222687 -106.866638 247 7826ft 0kts
03-Jan-20 16:05 39.222687 -106.866638 247 7826ft 0kts
03-Jan-20 16:06 39.222687 -106.866638 247 7826ft 0kts
03-Jan-20 16:07 39.222687 -106.866638 247 7826ft 0kts
03-Jan-20 16:08 39.222687 -106.866638 247 7826ft 0kts
03-Jan-20 16:09 39.222687 -106.866638 247 7826ft 0kts
03-Jan-20 16:10 39.222687 -106.866638 247 7826ft 0kts
03-Jan-20 16:11 39.222687 -106.866638 247 7826ft 0kts
03-Jan-20 16:12 39.222687 -106.866638 247 7826ft 0kts
03-Jan-20 16:13 39.222687 -106.866638 247 7826ft 0kts
03-Jan-20 16:14 39.222687 -106.866638 247 7826ft 0kts
03-Jan-20 16:15 39.222687 -106.866638 247 7826ft 0kts
03-Jan-20 16:16 39.222687 -106.866638 247 7826ft 0kts
03-Jan-20 16:17 39.222687 -106.866638 247 7826ft 0kts
03-Jan-20 16:19 39.222687 -106.866638 247 7826ft 0kts
03-Jan-20 16:20 39.222687 -106.866638 247 7826ft 0kts
03-Jan-20 16:21 39.222687 -106.866638 247 7826ft 0kts
03-Jan-20 16:22 39.222687 -106.866638 247 7826ft 0kts
03-Jan-20 16:23 39.222687 -106.866638 247 7826ft 0kts
03-Jan-20 16:24 39.222687 -106.866638 247 7826ft 0kts
03-Jan-20 16:25 39.222687 -106.866638 247 7826ft 0kts
03-Jan-20 16:26 39.222687 -106.866638 247 7826ft 0kts
03-Jan-20 16:27 39.222687 -106.866638 247 7826ft 0kts
03-Jan-20 16:28 39.222687 -106.866638 247 7826ft 0kts
03-Jan-20 16:29 39.222687 -106.866638 247 7826ft 0kts
03-Jan-20 16:30 39.222687 -106.866638 247 7826ft 0kts
03-Jan-20 16:31 39.222687 -106.866638 247 7826ft 0kts
03-Jan-20 16:32 39.222687 -106.866638 247 7826ft 0kts
03-Jan-20 16:33 39.222687 -106.866638 247 7826ft 0kts
03-Jan-20 16:34 39.222687 -106.866638 247 7826ft 0kts
03-Jan-20 16:35 39.222687 -106.866638 247 7826ft 0kts
03-Jan-20 16:35 39.222687 -106.866638 247 7826ft 0kts
03-Jan-20 16:37 39.222687 -106.866638 247 7826ft 0kts
03-Jan-20 16:38 39.222687 -106.866638 247 7825ft 0kts
03-Jan-20 16:38 39.222687 -106.866638 247 7825ft 0kts
03-Jan-20 16:40 39.222687 -106.866638 247 7825ft 0kts
03-Jan-20 16:41 39.222687 -106.866638 247 7825ft 0kts
03-Jan-20 16:41 39.222687 -106.866638 247 7825ft 0kts
03-Jan-20 16:43 39.222687 -106.866638 247 7825ft 0kts
03-Jan-20 16:43 39.222687 -106.866638 247 7825ft 0kts
03-Jan-20 16:44 39.222687 -106.866638 247 7825ft 0kts
03-Jan-20 16:46 39.222687 -106.866638 247 7825ft 0kts
03-Jan-20 16:46 39.222687 -106.866638 247 7825ft 0kts
03-Jan-20 16:47 39.222687 -106.866638 247 7825ft 0kts
03-Jan-20 16:48 39.222687 -106.866638 247 7825ft 0kts
03-Jan-20 16:49 39.222686 -106.866638 247 7825ft 0kts
03-Jan-20 16:50 39.222686 -106.866638 247 7825ft 0kts
03-Jan-20 16:51 39.222686 -106.866638 247 7825ft 0kts
03-Jan-20 16:52 39.220359 -106.866105 158 7825ft 19kts
03-Jan-20 16:53 39.216640 -106.864333 159 7825ft 12kts
03-Jan-20 16:54 39.212747 -106.862517 182 7825ft 0kts
03-Jan-20 16:55 39.212543 -106.862570 204 7825ft 6kts
03-Jan-20 16:56 39.219775 -106.867026 339 7826ft 118kts
03-Jan-20 16:57 39.264822 -106.879152 350 9569ft 187kts
03-Jan-20 16:58 39.292769 -106.935773 281 11456ft 239kts
03-Jan-20 16:59 39.306355 -107.018291 281 14436ft 263kts
03-Jan-20 17:00 39.352886 -107.108964 318 16326ft 331kts
03-Jan-20 17:01 39.382444 -107.215038 258 19241ft 347kts
03-Jan-20 17:02 39.354197 -107.336951 261 21699ft 358kts
03-Jan-20 17:03 39.328919 -107.463550 262 23859ft 370kts
03-Jan-20 17:04 39.303156 -107.595205 264 25775ft 381kts
03-Jan-20 17:05 39.278146 -107.724958 264 27351ft 393kts
03-Jan-20 17:06 39.250345 -107.861871 264 28749ft 405kts
03-Jan-20 17:07 39.221353 -108.004162 265 30098ft 411kts
03-Jan-20 17:08 39.192301 -108.147414 266 31507ft 411kts
03-Jan-20 17:09 39.163596 -108.290322 269 32752ft 410kts
03-Jan-20 17:10 39.136051 -108.433479 272 33898ft 407kts
03-Jan-20 17:11 39.158258 -108.559103 301 34408ft 356kts
03-Jan-20 17:12 39.192660 -108.675468 300 34402ft 360kts
03-Jan-20 17:13 39.228185 -108.796982 300 34401ft 360kts
03-Jan-20 17:14 39.263768 -108.918467 300 34400ft 360kts
03-Jan-20 17:15 39.299415 -109.039686 299 34397ft 360kts
03-Jan-20 17:16 39.335250 -109.161175 298 34395ft 362kts
03-Jan-20 17:17 39.371441 -109.283541 298 34401ft 362kts
03-Jan-20 17:18 39.407622 -109.405404 298 34413ft 362kts
03-Jan-20 17:19 39.443955 -109.527329 299 34417ft 361kts
03-Jan-20 17:20 39.480528 -109.649601 299 34416ft 361kts
03-Jan-20 17:21 39.515775 -109.767050 298 34422ft 362kts
03-Jan-20 17:22 39.553020 -109.890739 298 34411ft 362kts
03-Jan-20 17:23 39.590294 -110.014095 299 34386ft 361kts
03-Jan-20 17:24 39.628027 -110.135650 298 32585ft 357kts
03-Jan-20 17:25 39.664067 -110.254617 297 30174ft 349kts
03-Jan-20 17:26 39.699814 -110.372636 297 27806ft 349kts
03-Jan-20 17:27 39.735228 -110.489219 296 25471ft 341kts
03-Jan-20 17:28 39.772569 -110.599406 300 24358ft 322kts
03-Jan-20 17:29 39.811053 -110.700748 299 24366ft 332kts
03-Jan-20 17:30 39.851131 -110.806955 299 23247ft 314kts
03-Jan-20 17:31 39.889084 -110.907367 299 21681ft 299kts
03-Jan-20 17:32 39.925835 -111.004408 299 20114ft 292kts
03-Jan-20 17:33 39.962066 -111.099880 299 19363ft 288kts
03-Jan-20 17:34 39.998572 -111.195828 299 19374ft 295kts
03-Jan-20 17:35 40.035532 -111.293380 299 19393ft 296kts
03-Jan-20 17:36 40.071957 -111.391228 299 19405ft 297kts
03-Jan-20 17:37 40.106719 -111.484653 299 19412ft 297kts
03-Jan-20 17:38 40.143138 -111.582515 299 19377ft 301kts
03-Jan-20 17:39 40.179711 -111.681589 298 17431ft 308kts
03-Jan-20 17:40 40.215230 -111.778082 298 17241ft 288kts
03-Jan-20 17:41 40.250417 -111.873910 298 17112ft 291kts
03-Jan-20 17:42 40.296067 -111.961078 329 16763ft 306kts
03-Jan-20 17:43 40.373495 -112.015614 330 15673ft 314kts
03-Jan-20 17:44 40.454401 -112.056713 354 14400ft 315kts
03-Jan-20 17:45 40.541205 -112.066143 353 12733ft 309kts
03-Jan-20 17:46 40.625244 -112.077074 352 11108ft 296kts
03-Jan-20 17:47 40.702080 -112.086146 352 10971ft 269kts
03-Jan-20 17:48 40.777413 -112.094964 352 10982ft 270kts
03-Jan-20 17:49 40.852517 -112.103931 353 10982ft 269kts
03-Jan-20 17:50 40.927748 -112.112911 353 10228ft 269kts
03-Jan-20 17:51 40.977788 -112.063807 89 9246ft 268kts
03-Jan-20 17:52 40.954143 -111.986834 160 8385ft 220kts
03-Jan-20 17:53 40.899495 -111.966481 168 6865ft 179kts
03-Jan-20 17:54 40.855063 -111.961688 178 5541ft 144kts
03-Jan-20 17:55 40.816826 -111.961920 178 4636ft 128kts
03-Jan-20 17:56 40.785342 -111.962075 179 4233ft 48kts
03-Jan-20 17:57 40.782385 -111.960598 90 4233ft 0kts
03-Jan-20 17:58 40.781280 -111.959221 174 4233ft 13kts
03-Jan-20 17:59 40.777710 -111.959125 165 4233ft 12kts
03-Jan-20 18:00 40.777038 -111.959114 270 4233ft 0kts
03-Jan-20 18:01 40.777038 -111.959114 270 4233ft 0kts
03-Jan-20 18:02 40.777038 -111.959114 270 4233ft 0kts
03-Jan-20 18:03 40.777038 -111.959114 270 4233ft 0kts
03-Jan-20 18:04 40.777038 -111.959114 270 4233ft 0kts
03-Jan-20 18:05 40.777038 -111.959114 270 4233ft 0kts
03-Jan-20 18:06 40.777038 -111.959114 270 4233ft 0kts
03-Jan-20 18:07 40.777038 -111.959114 270 4233ft 0kts
03-Jan-20 18:08 40.777038 -111.959114 270 4233ft 0kts
03-Jan-20 18:09 40.777038 -111.959114 270 4233ft 0kts

Navigation Log

Ident Type
Flight plan parsing failed, navigation log unavailable